This is the latest recevied weather packets stored in our database for station/object K7TSD. If no packets are shown the sender has not sent any weather packets the latest 10 day(s).
| Time | Temp. | Humidity | Pressure | Rain* | Wind** | Luminosity | Snow |
|---|---|---|---|---|---|---|---|
| 1778107314 | 10° C | 44% | 1010.7 hPa | 0 mm | - | 397 W/m² | - |
| 1778107011 | 10° C | 43% | 1010.4 hPa | 0 mm | - | 517 W/m² | - |
| 1778106706 | 10° C | 42% | 1010.4 hPa | 0 mm | - | 493 W/m² | - |
| 1778106403 | 10.56° C | 43% | 1010.7 hPa | 0 mm | - | 541 W/m² | - |
| 1778106099 | 11.11° C | 43% | 1010.8 hPa | 0 mm | - | 487 W/m² | - |
| 1778105797 | 10.56° C | 44% | 1010.7 hPa | 0 mm | - | 512 W/m² | - |
| 1778105495 | 10.56° C | 44% | 1010.8 hPa | 0 mm | - | 502 W/m² | - |
| 1778105191 | 10° C | 44% | 1010.9 hPa | 0 mm | - | 462 W/m² | - |
| 1778104886 | 10° C | 44% | 1010.7 hPa | 0 mm | - | 553 W/m² | - |
| 1778104584 | 10.56° C | 43% | 1010.9 hPa | 0 mm | - | 418 W/m² | - |
| 1778104279 | 9.44° C | 42% | 1010.9 hPa | 0 mm | - | 528 W/m² | - |
| 1778103976 | 10° C | 44% | 1011.1 hPa | 0 mm | - | 502 W/m² | - |
| 1778103674 | 10° C | 44% | 1011.3 hPa | 0 mm | - | 607 W/m² | - |
| 1778103372 | 11.11° C | 41% | 1011.3 hPa | 0 mm | - | 666 W/m² | - |
| 1778103069 | 10.56° C | 46% | 1011.3 hPa | 0 mm | - | 699 W/m² | - |
| 1778102766 | 9.44° C | 46% | 1011.6 hPa | 0 mm | - | 522 W/m² | - |
| 1778102460 | 9.44° C | 45% | 1011.7 hPa | 0 mm | - | 370 W/m² | - |
| 1778102156 | 9.44° C | 45% | 1011.8 hPa | 0 mm | - | 466 W/m² | - |
| 1778101854 | 8.89° C | 46% | 1011.7 hPa | 0 mm | - | 662 W/m² | - |
| 1778101550 | 10.56° C | 43% | 1012 hPa | 0 mm | - | 721 W/m² | - |
| 1778101247 | 10.56° C | 43% | 1012.2 hPa | 0 mm | - | 574 W/m² | - |
| 1778100943 | 10.56° C | 43% | 1012.1 hPa | 0 mm | - | 497 W/m² | - |
| 1778100639 | 9.44° C | 45% | 1012 hPa | 0 mm | - | 668 W/m² | - |
| 1778100337 | 8.89° C | 46% | 1012.3 hPa | 0 mm | - | 661 W/m² | - |
| 1778100034 | 9.44° C | 45% | 1012.4 hPa | 0 mm | - | 666 W/m² | - |
* Rain latest hour (hover to see other rain measurements)
** Current wind speed in m/s (hover to see current wind gust speed)